Time;durP1;ratioP1;P1;durP2;ratioP2;P2;SDS_P1;SDS_P2;PMS_P1;PMS_P2;Temp;Humidity;BMP_temperature;BMP_pressure;BME280_temperature;BME280_humidity;BME280_pressure;Samples;Min_cycle;Max_cycle;Signal;HPM_P1;HPM_P2
2022/11/26 00:00:42;;;;;;;41.53;20.33;;;8.00;99.90;;;;;;5024845;28;20733;-69
2022/11/26 00:03:10;;;;;;;45.73;21.97;;;8.00;99.90;;;;;;5026182;28;20208;-70
2022/11/26 00:05:36;;;;;;;42.67;22.47;;;8.10;99.90;;;;;;5029936;28;20215;-69
2022/11/26 00:08:03;;;;;;;39.03;21.30;;;8.00;99.90;;;;;;5028221;28;20224;-69
2022/11/26 00:10:33;;;;;;;42.27;21.33;;;8.10;99.90;;;;;;5025109;28;20216;-70
2022/11/26 00:12:59;;;;;;;40.83;21.70;;;8.10;99.90;;;;;;5023567;28;20602;-69
2022/11/26 00:15:27;;;;;;;47.93;20.37;;;8.00;99.90;;;;;;5024328;28;20181;-69
2022/11/26 00:17:53;;;;;;;34.50;20.43;;;8.00;99.90;;;;;;5026940;28;20200;-69
2022/11/26 00:20:22;;;;;;;42.57;21.07;;;8.00;99.90;;;;;;5026101;28;20215;-69
2022/11/26 00:22:54;;;;;;;36.93;20.23;;;8.00;99.90;;;;;;5025955;28;20227;-69
2022/11/26 00:25:37;;;;;;;39.93;20.87;;;8.00;99.90;;;;;;5024251;28;20208;-69
2022/11/26 00:28:17;;;;;;;40.93;21.50;;;8.00;99.90;;;;;;5022550;28;20328;-69
2022/11/26 00:30:43;;;;;;;42.83;23.27;;;8.00;99.90;;;;;;5029179;28;20215;-69
2022/11/26 00:33:08;;;;;;;38.60;19.70;;;8.00;99.90;;;;;;5025409;28;20186;-70
2022/11/26 00:35:34;;;;;;;44.43;20.77;;;7.90;99.90;;;;;;5022800;28;20253;-71
2022/11/26 00:37:59;;;;;;;37.47;20.80;;;8.00;99.90;;;;;;5026419;28;20216;-71
2022/11/26 00:40:31;;;;;;;45.27;22.57;;;7.90;99.90;;;;;;5021279;28;20230;-69
2022/11/26 00:42:57;;;;;;;47.30;20.57;;;8.00;99.90;;;;;;5023767;28;20224;-69
2022/11/26 00:45:26;;;;;;;40.80;21.10;;;7.90;99.90;;;;;;5027970;28;20567;-70
2022/11/26 00:47:52;;;;;;;46.83;21.93;;;7.90;99.90;;;;;;5022622;28;20197;-69
2022/11/26 00:50:21;;;;;;;40.30;21.47;;;7.90;99.90;;;;;;5029143;28;20597;-69
2022/11/26 00:52:50;;;;;;;45.53;20.80;;;8.00;99.90;;;;;;5025801;28;20220;-69
2022/11/26 00:55:28;;;;;;;42.80;21.43;;;8.00;99.90;;;;;;5029302;28;20682;-69
2022/11/26 00:57:55;;;;;;;44.17;21.50;;;8.00;99.90;;;;;;5025399;28;20212;-69
2022/11/26 01:00:25;;;;;;;42.73;22.57;;;8.00;99.90;;;;;;5027566;28;20246;-69
2022/11/26 01:02:51;;;;;;;42.40;22.43;;;8.00;99.90;;;;;;5020328;28;20209;-69
2022/11/26 01:05:17;;;;;;;43.87;21.03;;;8.00;99.90;;;;;;5027545;28;20212;-69
2022/11/26 01:07:44;;;;;;;41.77;21.77;;;8.00;99.90;;;;;;5023556;28;20800;-69
2022/11/26 01:10:23;;;;;;;45.77;21.17;;;8.00;99.90;;;;;;5024552;28;20208;-69
2022/11/26 01:12:49;;;;;;;44.73;20.50;;;8.00;99.90;;;;;;5024064;28;20586;-69
2022/11/26 01:15:15;;;;;;;44.03;22.43;;;8.00;99.90;;;;;;5023555;28;20691;-69
2022/11/26 01:17:41;;;;;;;47.27;23.27;;;8.00;99.90;;;;;;5026610;28;20196;-69
2022/11/26 01:20:28;;;;;;;44.40;21.57;;;8.00;99.90;;;;;;5024171;28;20576;-69
2022/11/26 01:22:55;;;;;;;45.23;20.43;;;8.00;99.90;;;;;;5018665;28;20243;-69
2022/11/26 01:25:22;;;;;;;38.43;20.27;;;8.00;99.90;;;;;;5027983;28;20718;-69
2022/11/26 01:27:48;;;;;;;40.77;21.70;;;8.00;99.90;;;;;;5022978;28;20223;-69
2022/11/26 01:30:26;;;;;;;45.13;20.93;;;8.00;99.90;;;;;;5025603;28;20184;-69
2022/11/26 01:32:52;;;;;;;48.70;21.90;;;8.00;99.90;;;;;;5024874;28;20669;-68
2022/11/26 01:35:19;;;;;;;44.33;21.53;;;8.00;99.90;;;;;;5027462;28;20228;-69
2022/11/26 01:37:45;;;;;;;51.37;21.33;;;8.00;99.90;;;;;;5025390;28;20234;-69
2022/11/26 01:40:35;;;;;;;44.90;20.67;;;8.00;99.90;;;;;;5024717;28;20208;-69
2022/11/26 01:43:01;;;;;;;52.37;22.27;;;8.00;99.90;;;;;;5020644;28;20271;-69
2022/11/26 01:45:26;;;;;;;53.73;23.17;;;8.00;99.90;;;;;;5028012;28;20184;-69
2022/11/26 01:47:52;;;;;;;56.33;22.33;;;8.00;99.90;;;;;;5022881;28;20207;-69
2022/11/26 01:50:29;;;;;;;59.27;22.87;;;8.00;99.90;;;;;;5020545;28;20266;-69
2022/11/26 01:53:17;;;;;;;58.27;23.63;;;8.00;99.90;;;;;;5024108;28;20299;-71
2022/11/26 01:55:53;;;;;;;52.47;22.80;;;8.00;99.90;;;;;;5021944;28;20215;-69
2022/11/26 01:58:24;;;;;;;49.20;21.87;;;8.00;99.90;;;;;;5024770;28;20211;-69
2022/11/26 02:00:50;;;;;;;56.70;23.60;;;8.00;99.90;;;;;;5023049;28;20212;-69
2022/11/26 02:03:18;;;;;;;60.43;23.93;;;8.10;99.90;;;;;;5019603;28;20570;-69
2022/11/26 02:05:58;;;;;;;52.57;22.60;;;8.10;99.90;;;;;;5027848;28;20188;-69
2022/11/26 02:08:27;;;;;;;52.33;22.73;;;8.00;99.90;;;;;;5027526;28;20246;-69
2022/11/26 02:10:52;;;;;;;58.60;22.90;;;8.00;99.90;;;;;;5018030;28;20205;-68
2022/11/26 02:13:18;;;;;;;55.00;22.47;;;8.00;99.90;;;;;;5026477;28;20231;-69
2022/11/26 02:16:01;;;;;;;51.13;22.00;;;8.00;99.90;;;;;;5021592;28;20843;-69
2022/11/26 02:18:30;;;;;;;57.73;22.73;;;8.10;99.90;;;;;;5026183;28;20214;-69
2022/11/26 02:21:04;;;;;;;55.40;22.67;;;8.00;99.90;;;;;;5025897;28;20216;-69
2022/11/26 02:23:45;;;;;;;50.20;21.10;;;8.00;99.90;;;;;;5025028;28;20231;-69
2022/11/26 02:26:48;;;;;;;49.63;21.37;;;8.10;99.90;;;;;;5025988;28;20219;-69
2022/11/26 02:29:13;;;;;;;56.63;23.50;;;8.00;99.90;;;;;;5029751;28;20203;-68
2022/11/26 02:31:57;;;;;;;55.37;22.80;;;8.00;99.90;;;;;;5028541;28;20354;-69
2022/11/26 02:34:43;;;;;;;57.80;23.47;;;8.00;99.90;;;;;;5027247;28;20311;-69
2022/11/26 02:37:22;;;;;;;61.90;25.17;;;8.00;99.90;;;;;;5024818;28;20216;-68
2022/11/26 02:39:48;;;;;;;63.73;24.83;;;8.00;99.90;;;;;;5026991;28;20683;-69
2022/11/26 02:42:25;;;;;;;68.17;26.00;;;8.00;99.90;;;;;;5026924;28;20215;-69
2022/11/26 02:44:53;;;;;;;60.50;27.03;;;8.00;99.90;;;;;;5025315;28;20176;-69
2022/11/26 02:47:20;;;;;;;62.87;26.03;;;8.00;99.90;;;;;;5026894;28;20308;-68
2022/11/26 02:49:49;;;;;;;73.40;28.63;;;8.00;99.90;;;;;;5023888;28;20227;-69
2022/11/26 02:52:16;;;;;;;75.70;28.77;;;8.00;99.90;;;;;;5027437;28;20214;-68
2022/11/26 02:54:44;;;;;;;69.27;28.70;;;8.00;99.90;;;;;;5027673;28;20211;-69
2022/11/26 02:57:13;;;;;;;68.13;28.03;;;8.00;99.90;;;;;;5022145;28;20633;-69
2022/11/26 02:59:39;;;;;;;73.00;31.03;;;8.00;99.90;;;;;;5031988;28;20649;-69
2022/11/26 03:02:34;;;;;;;70.37;30.77;;;8.10;99.90;;;;;;5025689;28;20598;-69
2022/11/26 03:05:02;;;;;;;74.70;29.83;;;8.10;99.90;;;;;;5025705;28;20299;-71
2022/11/26 03:07:30;;;;;;;69.53;29.03;;;8.10;99.90;;;;;;5031341;28;20212;-69
2022/11/26 03:09:58;;;;;;;69.10;28.50;;;8.10;99.90;;;;;;5022826;28;20678;-69
2022/11/26 03:12:25;;;;;;;77.93;31.17;;;8.10;99.90;;;;;;5028285;28;20184;-69
2022/11/26 03:14:51;;;;;;;77.80;29.23;;;8.80;99.90;;;;;;5027232;28;20235;-69
2022/11/26 03:17:17;;;;;;;70.17;28.93;;;8.10;99.90;;;;;;5031254;28;20695;-69
2022/11/26 03:19:43;;;;;;;68.10;29.47;;;8.10;99.90;;;;;;5016020;28;20303;-69
2022/11/26 03:22:09;;;;;;;75.60;31.13;;;8.10;99.90;;;;;;5025694;28;20221;-69
2022/11/26 03:24:35;;;;;;;77.87;29.53;;;8.10;99.90;;;;;;5023814;28;20212;-70
2022/11/26 03:27:00;;;;;;;72.60;29.80;;;8.10;99.90;;;;;;5028496;28;20555;-70
2022/11/26 03:29:26;;;;;;;79.73;30.53;;;8.10;99.90;;;;;;5026451;28;20274;-69
2022/11/26 03:31:52;;;;;;;63.50;29.10;;;8.10;99.90;;;;;;5024046;28;20212;-69
2022/11/26 03:34:17;;;;;;;73.23;29.87;;;8.10;99.90;;;;;;5025913;28;20215;-69
2022/11/26 03:36:43;;;;;;;75.27;30.70;;;8.10;99.90;;;;;;5023833;28;20216;-69
2022/11/26 03:39:09;;;;;;;70.00;30.70;;;8.10;99.90;;;;;;5025569;28;20571;-69
2022/11/26 03:41:34;;;;;;;71.63;30.93;;;8.20;99.90;;;;;;5028299;28;20346;-70
2022/11/26 03:44:00;;;;;;;77.70;30.67;;;8.10;99.90;;;;;;5021066;28;20687;-69
2022/11/26 03:46:25;;;;;;;80.93;31.27;;;8.10;99.90;;;;;;5030342;28;20670;-69
2022/11/26 03:48:51;;;;;;;75.80;31.23;;;8.20;99.90;;;;;;5027690;28;20876;-69
2022/11/26 03:51:17;;;;;;;80.13;31.63;;;8.20;99.90;;;;;;5026973;28;20188;-69
2022/11/26 03:53:42;;;;;;;72.57;30.20;;;8.10;99.90;;;;;;5029605;28;20185;-69
2022/11/26 03:56:08;;;;;;;79.83;31.13;;;8.20;99.90;;;;;;5025236;28;20240;-69
2022/11/26 03:58:34;;;;;;;81.13;32.40;;;8.20;99.90;;;;;;5024465;28;20217;-69
2022/11/26 04:01:05;;;;;;;75.67;32.33;;;8.20;99.90;;;;;;5027039;28;20213;-69
2022/11/26 04:03:31;;;;;;;71.80;30.40;;;8.20;99.90;;;;;;5023940;28;20287;-69
2022/11/26 04:05:56;;;;;;;83.60;32.77;;;8.20;99.90;;;;;;5024146;28;20283;-69
2022/11/26 04:08:22;;;;;;;75.53;30.77;;;8.20;99.90;;;;;;5029806;28;20656;-70
2022/11/26 04:10:47;;;;;;;81.10;31.40;;;8.20;99.90;;;;;;5020718;28;20215;-69
2022/11/26 04:13:13;;;;;;;70.93;29.47;;;8.20;99.90;;;;;;5025550;28;20278;-69
2022/11/26 04:15:39;;;;;;;81.70;31.70;;;8.20;99.90;;;;;;5026596;28;20209;-69
2022/11/26 04:18:05;;;;;;;76.23;32.00;;;8.20;99.90;;;;;;5022636;28;20217;-69
2022/11/26 04:20:31;;;;;;;74.17;29.47;;;8.30;99.90;;;;;;5028465;28;20621;-69
2022/11/26 04:22:56;;;;;;;71.17;30.63;;;8.30;99.90;;;;;;5022172;28;20256;-69
2022/11/26 04:25:22;;;;;;;73.10;30.13;;;8.30;99.90;;;;;;5023788;28;20220;-69
2022/11/26 04:27:47;;;;;;;68.33;30.17;;;8.30;99.90;;;;;;5027470;28;20216;-69
2022/11/26 04:30:14;;;;;;;63.97;30.10;;;8.30;99.90;;;;;;5023022;28;20190;-70
2022/11/26 04:32:39;;;;;;;75.30;29.40;;;8.30;99.90;;;;;;5024117;28;20180;-69
2022/11/26 04:35:07;;;;;;;69.77;29.43;;;8.30;99.90;;;;;;5027738;28;20212;-69
2022/11/26 04:37:33;;;;;;;71.93;29.70;;;8.30;99.90;;;;;;5023669;28;20209;-69
2022/11/26 04:39:58;;;;;;;74.33;29.97;;;8.30;99.90;;;;;;5022189;28;20208;-70
2022/11/26 04:42:24;;;;;;;71.23;31.07;;;8.30;99.90;;;;;;5026852;28;20261;-70
2022/11/26 04:44:49;;;;;;;70.50;30.93;;;8.30;99.90;;;;;;5021607;28;20228;-69
2022/11/26 04:47:15;;;;;;;65.10;29.00;;;8.30;99.90;;;;;;5028532;28;20220;-69
2022/11/26 04:49:41;;;;;;;66.20;30.03;;;8.30;99.90;;;;;;5027790;28;20216;-69
2022/11/26 04:52:06;;;;;;;62.43;28.53;;;8.30;99.90;;;;;;5022981;28;20240;-69
2022/11/26 04:54:32;;;;;;;61.53;27.57;;;8.30;99.90;;;;;;5028518;28;20287;-69
2022/11/26 04:56:58;;;;;;;54.50;26.97;;;8.30;99.90;;;;;;5023795;28;20184;-69
2022/11/26 04:59:23;;;;;;;70.60;29.40;;;8.30;99.90;;;;;;5022648;28;20235;-69
2022/11/26 05:01:49;;;;;;;61.58;31.95;;;8.30;99.90;;;;;;5025509;28;20451;-69
2022/11/26 05:04:14;;;;;;;58.27;26.80;;;8.40;99.90;;;;;;5024059;28;20307;-70
2022/11/26 05:06:40;;;;;;;49.13;25.70;;;8.30;99.90;;;;;;5029113;28;20208;-69
2022/11/26 05:09:06;;;;;;;47.97;25.10;;;8.40;99.90;;;;;;5024401;28;20589;-69
2022/11/26 05:11:31;;;;;;;49.90;25.67;;;8.40;99.90;;;;;;5023227;28;20204;-69
2022/11/26 05:13:57;;;;;;;48.83;25.13;;;8.40;99.90;;;;;;5025342;28;20741;-69
2022/11/26 05:16:22;;;;;;;51.33;25.00;;;8.40;99.90;;;;;;5029123;28;20278;-69
2022/11/26 05:18:48;;;;;;;53.17;23.70;;;8.40;99.90;;;;;;5020234;28;20240;-69
2022/11/26 05:21:14;;;;;;;51.23;24.20;;;8.40;99.90;;;;;;5027202;28;20539;-70
2022/11/26 05:23:39;;;;;;;46.07;22.83;;;8.40;99.90;;;;;;5024806;28;20173;-69
2022/11/26 05:26:05;;;;;;;43.37;22.73;;;8.30;99.90;;;;;;5020882;28;20208;-69
2022/11/26 05:28:30;;;;;;;46.70;21.40;;;8.30;99.90;;;;;;5028945;28;20616;-69
2022/11/26 05:30:58;;;;;;;47.63;22.20;;;8.40;99.90;;;;;;5025434;28;20296;-69
2022/11/26 05:33:24;;;;;;;37.80;20.27;;;8.40;99.90;;;;;;5022974;28;20176;-69
2022/11/26 05:35:50;;;;;;;45.90;21.70;;;8.40;99.90;;;;;;5024308;28;20203;-70
2022/11/26 05:38:15;;;;;;;43.47;20.57;;;8.40;99.90;;;;;;5022542;28;20216;-69
2022/11/26 05:40:41;;;;;;;38.37;19.83;;;8.40;99.90;;;;;;5025675;28;20200;-70
2022/11/26 05:43:06;;;;;;;40.47;19.93;;;8.40;99.90;;;;;;5024580;28;20236;-69
2022/11/26 05:45:32;;;;;;;37.50;18.90;;;8.40;99.90;;;;;;5020974;28;20216;-69
2022/11/26 05:47:57;;;;;;;38.30;18.43;;;8.40;99.90;;;;;;5027599;28;20298;-69
2022/11/26 05:50:23;;;;;;;37.43;18.17;;;8.40;99.90;;;;;;5029070;28;20407;-69
2022/11/26 05:52:49;;;;;;;39.73;18.47;;;8.40;99.90;;;;;;5023666;28;20212;-70
2022/11/26 05:55:15;;;;;;;35.17;17.53;;;8.40;99.90;;;;;;5031128;28;20212;-70
2022/11/26 05:57:41;;;;;;;42.30;18.83;;;8.30;99.90;;;;;;5027883;28;20258;-69
2022/11/26 06:00:09;;;;;;;44.10;18.13;;;8.40;99.90;;;;;;5024913;28;20263;-70
2022/11/26 06:02:35;;;;;;;45.57;19.20;;;8.30;99.90;;;;;;5026797;28;20220;-69
2022/11/26 06:05:01;;;;;;;35.77;18.67;;;8.30;99.90;;;;;;5027281;28;20208;-69
2022/11/26 06:07:26;;;;;;;38.53;19.60;;;8.40;99.90;;;;;;5029999;28;20234;-69
2022/11/26 06:09:52;;;;;;;37.70;18.13;;;8.40;99.90;;;;;;5028106;28;20262;-69
2022/11/26 06:12:17;;;;;;;36.13;19.20;;;8.30;99.90;;;;;;5027344;28;20177;-69
2022/11/26 06:14:43;;;;;;;40.77;18.40;;;8.40;99.90;;;;;;5029286;28;20263;-69
2022/11/26 06:17:09;;;;;;;42.50;18.40;;;8.30;99.90;;;;;;5027768;28;20209;-70
2022/11/26 06:19:34;;;;;;;40.83;17.93;;;8.30;99.90;;;;;;5024586;28;20220;-69
2022/11/26 06:22:00;;;;;;;43.67;18.13;;;8.30;99.90;;;;;;5027497;28;20223;-69
2022/11/26 06:24:25;;;;;;;38.33;18.53;;;8.30;99.90;;;;;;5028790;28;20592;-70
2022/11/26 06:26:51;;;;;;;38.47;18.67;;;8.30;99.90;;;;;;5023182;28;20188;-69
2022/11/26 06:29:16;;;;;;;39.93;17.90;;;8.40;99.90;;;;;;5031787;28;20254;-69
2022/11/26 06:31:42;;;;;;;40.47;18.73;;;8.40;99.90;;;;;;5030047;28;20311;-69
2022/11/26 06:34:08;;;;;;;41.00;18.40;;;8.40;99.90;;;;;;5027160;28;20292;-69
2022/11/26 06:36:33;;;;;;;42.63;18.77;;;8.40;99.90;;;;;;5030297;28;20223;-70
2022/11/26 06:38:59;;;;;;;35.77;19.13;;;8.40;99.90;;;;;;5024982;28;20235;-69
2022/11/26 06:41:24;;;;;;;45.20;18.83;;;8.40;99.90;;;;;;5028333;28;20735;-70
2022/11/26 06:43:50;;;;;;;37.97;18.53;;;8.40;99.90;;;;;;5025940;28;20207;-69
2022/11/26 06:46:16;;;;;;;43.73;19.13;;;8.40;99.90;;;;;;5026059;28;20207;-70
2022/11/26 06:48:41;;;;;;;36.73;17.90;;;8.40;99.90;;;;;;5027813;28;20227;-69
2022/11/26 06:51:10;;;;;;;34.93;18.17;;;8.40;99.90;;;;;;5026913;28;20189;-69
2022/11/26 06:53:36;;;;;;;32.93;17.40;;;8.30;99.90;;;;;;5024205;28;20212;-69
2022/11/26 06:56:03;;;;;;;40.57;18.13;;;8.30;99.90;;;;;;5030426;28;20291;-69
2022/11/26 06:58:29;;;;;;;36.83;16.40;;;8.30;99.90;;;;;;5027402;28;20263;-69
2022/11/26 07:00:55;;;;;;;40.57;17.33;;;8.40;99.90;;;;;;5025040;28;20204;-69
2022/11/26 07:03:22;;;;;;;36.47;17.70;;;8.40;99.90;;;;;;5029091;28;20600;-69
2022/11/26 07:05:48;;;;;;;41.33;19.43;;;8.40;99.90;;;;;;5025078;28;20181;-69
2022/11/26 07:08:13;;;;;;;38.10;17.00;;;8.40;99.90;;;;;;5028793;28;20215;-70
2022/11/26 07:10:39;;;;;;;35.60;17.67;;;8.40;99.90;;;;;;5030357;28;20214;-70
2022/11/26 07:13:04;;;;;;;39.13;18.23;;;8.40;99.90;;;;;;5024038;28;20205;-70
2022/11/26 07:15:30;;;;;;;38.73;18.10;;;8.30;99.90;;;;;;5027862;28;20204;-70
2022/11/26 07:17:57;;;;;;;31.57;17.07;;;8.30;99.90;;;;;;5026394;28;20197;-70
2022/11/26 07:20:23;;;;;;;29.23;15.87;;;8.40;99.90;;;;;;5025337;28;20200;-70
2022/11/26 07:22:49;;;;;;;37.67;17.63;;;8.40;99.90;;;;;;5029732;28;20216;-70
2022/11/26 07:25:16;;;;;;;31.47;16.07;;;8.40;99.90;;;;;;5023906;28;20212;-70
2022/11/26 07:27:41;;;;;;;47.17;17.03;;;8.30;99.90;;;;;;5025286;28;20210;-70
2022/11/26 07:30:08;;;;;;;39.87;17.27;;;8.30;99.90;;;;;;5030339;28;20185;-70
2022/11/26 07:32:34;;;;;;;37.90;16.27;;;8.30;99.90;;;;;;5025907;28;20239;-70
2022/11/26 07:35:01;;;;;;;35.77;16.20;;;8.40;99.90;;;;;;5025040;28;20262;-70
2022/11/26 07:37:27;;;;;;;41.27;15.83;;;8.30;99.90;;;;;;5028912;28;20411;-70
2022/11/26 07:39:52;;;;;;;34.43;15.17;;;8.40;99.90;;;;;;5022097;28;20306;-70
2022/11/26 07:42:18;;;;;;;39.40;16.07;;;8.40;99.90;;;;;;5028353;28;20200;-70
2022/11/26 07:44:43;;;;;;;49.57;16.30;;;8.40;99.90;;;;;;5029072;28;20196;-70
2022/11/26 07:47:09;;;;;;;37.47;14.57;;;8.40;99.90;;;;;;5024583;28;20216;-70
2022/11/26 07:49:36;;;;;;;25.97;14.77;;;8.40;99.90;;;;;;5029654;28;20220;-70
2022/11/26 07:52:02;;;;;;;40.20;14.07;;;8.40;99.90;;;;;;5025042;28;20287;-70
2022/11/26 07:54:27;;;;;;;31.93;13.30;;;8.40;99.90;;;;;;5024586;28;20180;-70
2022/11/26 07:56:53;;;;;;;29.57;14.00;;;8.40;99.90;;;;;;5028524;28;20191;-69
2022/11/26 07:59:18;;;;;;;30.57;13.63;;;8.50;99.90;;;;;;5025941;28;20639;-70
2022/11/26 08:01:44;;;;;;;29.67;13.40;;;8.40;99.90;;;;;;5024128;28;20299;-70
2022/11/26 08:04:10;;;;;;;30.40;13.77;;;8.40;99.90;;;;;;5029155;28;20292;-70
2022/11/26 08:06:35;;;;;;;31.83;12.73;;;8.50;99.90;;;;;;5024384;28;20232;-70
2022/11/26 08:09:02;;;;;;;27.80;12.40;;;8.50;99.90;;;;;;5026316;28;20282;-70
2022/11/26 08:11:30;;;;;;;28.13;13.93;;;8.50;99.90;;;;;;5027505;28;20294;-70
2022/11/26 08:14:01;;;;;;;30.20;12.47;;;8.50;99.90;;;;;;5020569;28;20299;-70
2022/11/26 08:16:27;;;;;;;34.60;11.90;;;8.50;99.90;;;;;;5026349;28;20220;-70
2022/11/26 08:18:57;;;;;;;34.63;12.73;;;8.50;99.90;;;;;;5024498;28;20814;-70
2022/11/26 08:21:23;;;;;;;33.77;13.40;;;8.60;99.90;;;;;;5023704;28;20211;-70
2022/11/26 08:23:50;;;;;;;27.37;12.53;;;8.60;99.90;;;;;;5027291;28;20182;-70
2022/11/26 08:26:16;;;;;;;35.53;14.53;;;8.60;99.90;;;;;;5024207;28;20204;-70
2022/11/26 08:28:44;;;;;;;31.13;12.93;;;8.60;99.90;;;;;;5023663;28;20291;-70
2022/11/26 08:31:11;;;;;;;28.27;11.73;;;8.60;99.90;;;;;;5024967;28;20209;-70
2022/11/26 08:33:37;;;;;;;25.10;12.33;;;8.60;99.90;;;;;;5023930;28;20259;-70
2022/11/26 08:36:03;;;;;;;37.10;11.70;;;8.60;99.90;;;;;;5024581;28;20310;-70
2022/11/26 08:38:29;;;;;;;27.10;10.33;;;8.60;99.90;;;;;;5028826;28;20243;-70
2022/11/26 08:41:09;;;;;;;22.70;10.63;;;8.60;99.90;;;;;;5019163;28;20267;-70
2022/11/26 08:43:35;;;;;;;25.00;11.03;;;8.60;99.90;;;;;;5029340;28;20760;-70
2022/11/26 08:46:01;;;;;;;17.30;10.13;;;8.60;99.90;;;;;;5023802;28;20691;-70
2022/11/26 08:48:28;;;;;;;24.50;9.83;;;8.60;99.90;;;;;;5022169;28;20227;-70
2022/11/26 08:51:12;;;;;;;22.90;9.03;;;8.60;99.90;;;;;;5025678;28;20186;-70
2022/11/26 08:53:38;;;;;;;29.27;10.93;;;8.60;99.90;;;;;;5023449;28;20236;-70
2022/11/26 08:56:09;;;;;;;23.57;10.43;;;8.60;99.90;;;;;;5024847;28;20314;-70
2022/11/26 08:58:38;;;;;;;21.57;10.33;;;8.60;99.90;;;;;;5029057;28;20299;-70
2022/11/26 09:01:13;;;;;;;19.47;10.47;;;8.60;99.90;;;;;;5021589;28;20686;-70
2022/11/26 09:03:39;;;;;;;22.60;9.80;;;8.60;99.90;;;;;;5025983;28;20212;-70
2022/11/26 09:06:06;;;;;;;26.67;10.77;;;8.60;99.90;;;;;;5024573;28;20558;-70
2022/11/26 09:08:43;;;;;;;28.40;10.23;;;8.60;99.90;;;;;;5024586;28;20302;-72
2022/11/26 09:11:10;;;;;;;24.80;10.17;;;8.60;99.90;;;;;;5026670;28;20791;-70
2022/11/26 09:13:36;;;;;;;26.57;10.27;;;8.60;99.90;;;;;;5024274;28;20208;-71
2022/11/26 09:16:02;;;;;;;26.40;10.47;;;8.70;99.90;;;;;;5023565;28;20693;-70
2022/11/26 09:18:27;;;;;;;23.20;9.80;;;8.70;99.90;;;;;;5029107;28;20200;-70
2022/11/26 09:20:53;;;;;;;26.13;9.03;;;8.70;99.90;;;;;;5021540;28;20185;-70
2022/11/26 09:23:18;;;;;;;25.00;8.27;;;8.70;99.90;;;;;;5025649;28;20710;-70
2022/11/26 09:25:44;;;;;;;21.93;7.93;;;8.70;99.90;;;;;;5025061;28;20226;-70
2022/11/26 09:28:10;;;;;;;25.13;9.80;;;8.70;99.90;;;;;;5022238;28;20699;-70
2022/11/26 09:30:35;;;;;;;18.30;8.40;;;8.70;99.90;;;;;;5025352;28;20215;-70
2022/11/26 09:33:01;;;;;;;25.33;8.33;;;8.70;99.90;;;;;;5024235;28;20195;-70
2022/11/26 09:35:27;;;;;;;16.23;8.53;;;8.70;99.90;;;;;;5022713;28;20219;-70
2022/11/26 09:37:53;;;;;;;17.73;8.07;;;8.70;99.90;;;;;;5027770;28;20213;-69
2022/11/26 09:40:19;;;;;;;27.17;9.27;;;8.70;99.90;;;;;;5027141;28;20223;-70
2022/11/26 09:43:10;;;;;;;19.90;8.53;;;8.70;99.90;;;;;;5023094;28;20238;-70
2022/11/26 09:45:44;;;;;;;20.30;8.70;;;8.70;99.90;;;;;;5017332;28;20213;-70
2022/11/26 09:48:21;;;;;;;15.43;7.70;;;8.70;99.90;;;;;;5022208;28;20225;-71
2022/11/26 09:50:49;;;;;;;26.37;8.27;;;8.70;99.90;;;;;;5023676;28;20282;-70
2022/11/26 09:53:20;;;;;;;22.27;8.17;;;8.70;99.90;;;;;;5025206;28;20223;-70
2022/11/26 09:55:50;;;;;;;20.87;8.50;;;8.70;99.90;;;;;;5020056;28;20219;-70
2022/11/26 09:58:16;;;;;;;19.13;7.17;;;8.70;99.90;;;;;;5026939;28;20725;-70
2022/11/26 10:00:45;;;;;;;17.63;7.13;;;8.80;99.90;;;;;;5023207;28;20215;-70
2022/11/26 10:03:16;;;;;;;20.70;7.03;;;8.80;99.90;;;;;;5024418;28;20192;-71
2022/11/26 10:05:48;;;;;;;26.00;8.73;;;8.80;99.90;;;;;;5021383;28;20546;-70
2022/11/26 10:08:17;;;;;;;19.03;7.27;;;8.80;99.90;;;;;;5024070;28;20257;-70
2022/11/26 10:10:48;;;;;;;19.53;7.10;;;8.80;99.90;;;;;;5024817;28;20223;-70
2022/11/26 10:13:24;;;;;;;15.77;6.57;;;8.70;99.90;;;;;;5019215;28;20208;-70
2022/11/26 10:16:23;;;;;;;26.60;7.83;;;8.70;99.90;;;;;;5018884;28;20208;-69
2022/11/26 10:19:05;;;;;;;16.97;6.93;;;8.70;99.90;;;;;;4985266;28;20216;-70
2022/11/26 10:21:41;;;;;;;22.03;7.60;;;8.70;99.90;;;;;;5021739;28;20239;-70
2022/11/26 10:24:22;;;;;;;18.33;6.83;;;8.70;99.90;;;;;;5024047;28;20548;-70
2022/11/26 10:26:48;;;;;;;20.63;7.00;;;8.70;99.90;;;;;;5023310;28;20215;-70
2022/11/26 10:29:25;;;;;;;22.10;7.03;;;8.60;99.90;;;;;;5021580;28;20609;-70
2022/11/26 10:31:58;;;;;;;27.30;7.63;;;8.60;99.90;;;;;;5023897;28;20208;-70
2022/11/26 10:34:51;;;;;;;26.67;7.23;;;8.60;99.90;;;;;;5023511;28;20243;-70
2022/11/26 10:37:19;;;;;;;22.80;7.40;;;8.60;99.90;;;;;;5024801;28;20232;-70
2022/11/26 10:39:45;;;;;;;25.80;8.23;;;8.60;99.90;;;;;;5028617;28;20220;-70
2022/11/26 10:42:21;;;;;;;26.60;8.73;;;8.60;99.90;;;;;;5025544;28;20208;-71
2022/11/26 10:44:49;;;;;;;22.63;8.00;;;8.60;99.90;;;;;;5028164;28;20380;-70
2022/11/26 10:47:23;;;;;;;21.80;7.80;;;8.60;99.90;;;;;;5027990;28;20215;-70
2022/11/26 10:49:50;;;;;;;22.27;7.73;;;8.70;99.90;;;;;;5022093;28;20233;-69
2022/11/26 10:52:26;;;;;;;20.83;8.10;;;8.60;99.90;;;;;;5030134;28;20587;-70
2022/11/26 10:55:07;;;;;;;20.97;7.37;;;8.60;99.90;;;;;;5023740;28;20270;-70
2022/11/26 10:57:39;;;;;;;19.50;7.53;;;8.60;99.90;;;;;;5030001;28;20215;-70
2022/11/26 11:00:06;;;;;;;19.30;6.83;;;8.70;99.90;;;;;;5027890;28;20185;-70
2022/11/26 11:02:39;;;;;;;24.33;7.40;;;8.60;99.90;;;;;;5025471;28;20248;-70
2022/11/26 11:05:07;;;;;;;18.00;7.40;;;8.70;99.90;;;;;;5028722;28;20216;-70
2022/11/26 11:07:41;;;;;;;15.70;6.90;;;8.70;99.90;;;;;;5027925;28;20208;-70
2022/11/26 11:10:10;;;;;;;18.10;6.67;;;8.70;99.90;;;;;;5023429;28;20738;-70
2022/11/26 11:12:38;;;;;;;14.60;6.07;;;8.70;99.90;;;;;;5031561;28;20578;-69
2022/11/26 11:15:19;;;;;;;9.03;5.30;;;8.60;99.90;;;;;;5025591;28;20177;-69
2022/11/26 11:17:52;;;;;;;11.17;5.43;;;8.70;99.90;;;;;;5025640;28;20216;-71
2022/11/26 11:20:17;;;;;;;16.63;5.90;;;8.70;99.90;;;;;;5025847;28;20223;-69
2022/11/26 11:22:45;;;;;;;14.40;5.17;;;8.70;99.90;;;;;;5023732;28;20606;-70
2022/11/26 11:25:23;;;;;;;13.80;6.33;;;8.60;99.90;;;;;;5029789;28;20642;-70
2022/11/26 11:27:49;;;;;;;16.23;6.70;;;8.70;99.90;;;;;;5025253;28;20219;-69
2022/11/26 11:30:31;;;;;;;18.43;7.17;;;8.60;99.90;;;;;;5024524;28;20184;-70
2022/11/26 11:33:13;;;;;;;12.80;6.20;;;8.70;99.90;;;;;;5026930;28;20200;-69
2022/11/26 11:35:39;;;;;;;13.10;6.33;;;8.70;99.90;;;;;;5025429;28;20235;-69
2022/11/26 11:38:25;;;;;;;16.60;7.57;;;8.70;99.90;;;;;;5026644;28;20212;-69
2022/11/26 11:40:51;;;;;;;18.33;7.07;;;8.70;99.90;;;;;;5025456;28;20231;-69
2022/11/26 11:43:18;;;;;;;21.47;9.23;;;8.70;99.90;;;;;;5024896;28;20220;-69
2022/11/26 11:46:14;;;;;;;23.17;9.13;;;8.70;99.90;;;;;;5026954;28;20757;-69
2022/11/26 11:48:57;;;;;;;18.90;7.63;;;8.60;99.90;;;;;;5024371;28;20231;-70
2022/11/26 11:51:40;;;;;;;19.10;7.57;;;8.70;99.90;;;;;;5041433;23;20231;-72
2022/11/26 11:54:29;;;;;;;18.63;7.53;;;8.70;99.90;;;;;;5031846;28;20184;-72
2022/11/26 11:57:11;;;;;;;18.80;8.23;;;8.70;99.90;;;;;;5031821;28;20338;-72
2022/11/26 12:00:11;;;;;;;20.63;8.30;;;8.60;99.90;;;;;;5031481;28;20219;-72
2022/11/26 12:02:58;;;;;;;20.10;7.90;;;8.70;99.90;;;;;;5007703;28;20220;-72
2022/11/26 12:05:58;;;;;;;23.23;8.30;;;8.70;99.90;;;;;;5007342;28;20217;-72
2022/11/26 12:08:54;;;;;;;18.07;8.77;;;8.80;99.90;;;;;;5010077;28;20209;-73
2022/11/26 12:11:32;;;;;;;16.90;8.00;;;8.80;99.90;;;;;;5011095;28;20753;-72
2022/11/26 12:14:20;;;;;;;19.47;8.60;;;8.80;99.90;;;;;;5011225;28;20224;-72
2022/11/26 12:16:52;;;;;;;21.83;9.33;;;8.90;99.90;;;;;;5010166;28;20267;-72
2022/11/26 12:19:33;;;;;;;17.33;8.53;;;8.80;99.90;;;;;;5007634;28;20300;-74
2022/11/26 12:22:15;;;;;;;27.20;8.93;;;8.90;99.90;;;;;;5018272;28;20599;-72
2022/11/26 12:24:55;;;;;;;21.60;10.23;;;8.90;99.90;;;;;;5009940;28;20220;-72
2022/11/26 12:27:30;;;;;;;19.97;10.03;;;8.90;99.90;;;;;;5024121;28;20230;-72
2022/11/26 12:30:11;;;;;;;19.87;10.33;;;8.90;99.90;;;;;;5011450;28;20188;-75
2022/11/26 12:32:56;;;;;;;21.90;9.67;;;8.90;99.90;;;;;;5010266;28;20221;-71
2022/11/26 12:35:30;;;;;;;22.30;10.37;;;8.90;99.90;;;;;;5024900;28;20239;-72
2022/11/26 12:38:01;;;;;;;22.77;9.27;;;8.90;99.90;;;;;;5006597;28;20295;-72
2022/11/26 12:40:54;;;;;;;26.30;10.27;;;8.90;99.90;;;;;;5026009;28;20312;-75
2022/11/26 12:43:57;;;;;;;28.67;11.90;;;8.80;99.90;;;;;;5009858;28;20271;-73
2022/11/26 12:46:29;;;;;;;24.00;9.07;;;8.80;99.90;;;;;;5023131;28;20267;-72
2022/11/26 12:49:08;;;;;;;23.67;8.50;;;8.70;99.90;;;;;;5011152;28;20227;-72
2022/11/26 12:51:34;;;;;;;27.20;8.30;;;8.60;99.90;;;;;;5008476;28;20229;-72
2022/11/26 12:54:14;;;;;;;24.83;7.90;;;8.70;99.90;;;;;;5011527;28;20239;-73